Time;durP1;ratioP1;P1;durP2;ratioP2;P2;SDS_P1;SDS_P2;PMS_P1;PMS_P2;Temp;Humidity;BMP_temperature;BMP_pressure;BME280_temperature;BME280_humidity;BME280_pressure;Samples;Min_cycle;Max_cycle;Signal;HPM_P1;HPM_P2
2023/06/15 00:00:17;;;;;;;8.07;5.20;;;19.10;1.00;;;;;;4989555;28;20477;-71
2023/06/15 00:02:44;;;;;;;6.37;4.83;;;19.00;1.00;;;;;;4988961;28;20469;-73
2023/06/15 00:05:11;;;;;;;5.23;4.73;;;19.00;1.00;;;;;;4988423;28;20462;-71
2023/06/15 00:07:38;;;;;;;7.17;4.97;;;19.00;1.00;;;;;;4990279;28;20469;-70
2023/06/15 00:10:06;;;;;;;6.93;4.80;;;19.00;1.00;;;;;;4989528;28;20460;-72
2023/06/15 00:12:34;;;;;;;6.93;4.80;;;19.00;1.00;;;;;;4989351;28;21231;-71
2023/06/15 00:15:03;;;;;;;5.87;5.23;;;19.00;1.00;;;;;;4989000;28;20610;-70
2023/06/15 00:17:31;;;;;;;5.40;4.90;;;18.90;1.00;;;;;;4990172;28;20933;-70
2023/06/15 00:20:00;;;;;;;7.57;4.80;;;18.90;1.00;;;;;;4988812;28;20500;-70
2023/06/15 00:22:28;;;;;;;5.90;4.67;;;18.90;1.00;;;;;;4990728;28;20482;-70
2023/06/15 00:24:55;;;;;;;5.00;4.50;;;18.90;1.00;;;;;;4990498;28;20516;-69
2023/06/15 00:27:22;;;;;;;5.70;4.57;;;18.80;1.00;;;;;;4992712;28;20461;-70
2023/06/15 00:29:49;;;;;;;4.80;4.07;;;18.80;1.00;;;;;;4987660;28;20467;-69
2023/06/15 00:32:18;;;;;;;5.17;4.77;;;18.80;1.00;;;;;;4990740;28;20930;-69
2023/06/15 00:34:44;;;;;;;5.03;4.27;;;18.70;1.00;;;;;;4990278;28;20947;-69
2023/06/15 00:37:11;;;;;;;8.57;4.50;;;18.70;1.00;;;;;;4990209;28;20910;-69
2023/06/15 00:39:38;;;;;;;5.60;5.00;;;18.70;1.00;;;;;;4989954;28;20466;-69
2023/06/15 00:42:05;;;;;;;6.00;4.87;;;18.70;1.00;;;;;;4989025;28;20564;-70
2023/06/15 00:44:32;;;;;;;5.50;5.00;;;18.60;1.00;;;;;;4988596;28;20543;-70
2023/06/15 00:47:01;;;;;;;4.87;4.57;;;18.60;1.00;;;;;;4990274;28;20543;-70
2023/06/15 00:49:29;;;;;;;5.53;5.10;;;18.60;1.00;;;;;;4992109;28;20481;-69
2023/06/15 00:51:57;;;;;;;6.30;4.50;;;18.60;1.00;;;;;;4983331;28;20482;-69
2023/06/15 00:54:25;;;;;;;5.33;4.83;;;18.60;1.00;;;;;;4990611;28;20489;-69
2023/06/15 00:56:53;;;;;;;8.23;4.90;;;18.60;1.00;;;;;;4986752;28;20465;-69
2023/06/15 00:59:21;;;;;;;4.90;4.40;;;18.60;1.00;;;;;;4988711;28;20573;-69
2023/06/15 01:01:49;;;;;;;4.77;4.37;;;18.50;1.00;;;;;;4988050;28;20563;-76
2023/06/15 01:04:16;;;;;;;5.30;4.83;;;18.50;1.00;;;;;;4991333;28;20467;-77
2023/06/15 01:06:51;;;;;;;11.40;6.30;;;18.50;1.00;;;;;;4988538;28;20536;-76
2023/06/15 01:09:21;;;;;;;6.60;5.23;;;18.50;1.00;;;;;;4989843;28;20798;-77
2023/06/15 01:11:50;;;;;;;6.13;4.60;;;18.40;1.00;;;;;;4988652;28;20869;-75
2023/06/15 01:14:18;;;;;;;6.20;4.90;;;18.30;1.00;;;;;;4991239;28;20490;-76
2023/06/15 01:16:52;;;;;;;5.77;4.97;;;18.30;1.00;;;;;;4987727;28;20566;-75
2023/06/15 01:19:35;;;;;;;6.00;4.40;;;18.20;1.00;;;;;;4992923;28;20550;-75
2023/06/15 01:22:16;;;;;;;5.60;4.90;;;18.20;1.00;;;;;;4988765;28;20483;-75
2023/06/15 01:24:51;;;;;;;9.40;5.70;;;18.10;1.00;;;;;;4990073;28;20479;-75
2023/06/15 01:27:21;;;;;;;5.27;4.77;;;18.00;1.00;;;;;;4991153;28;20966;-75
2023/06/15 01:29:52;;;;;;;4.90;4.37;;;17.90;1.00;;;;;;4988545;28;20534;-75
2023/06/15 01:32:20;;;;;;;5.87;5.27;;;17.90;1.00;;;;;;4993460;28;20971;-75
2023/06/15 01:34:47;;;;;;;5.83;4.67;;;17.80;1.00;;;;;;4992636;28;20486;-76
2023/06/15 01:37:14;;;;;;;6.93;5.37;;;17.70;1.00;;;;;;4991184;28;20467;-75
2023/06/15 01:39:42;;;;;;;5.27;4.60;;;17.60;1.00;;;;;;4990824;28;20523;-76
2023/06/15 01:42:10;;;;;;;6.03;5.40;;;17.60;1.00;;;;;;4991470;28;20473;-75
2023/06/15 01:44:40;;;;;;;5.20;4.77;;;17.50;1.00;;;;;;4988830;28;20474;-76
2023/06/15 01:47:08;;;;;;;5.53;4.53;;;17.50;1.00;;;;;;4988708;28;20898;-75
2023/06/15 01:49:35;;;;;;;6.93;4.73;;;17.50;1.00;;;;;;4991289;28;20959;-75
2023/06/15 01:52:02;;;;;;;8.87;5.30;;;17.50;1.00;;;;;;4985649;28;20487;-77
2023/06/15 01:54:29;;;;;;;5.30;4.37;;;17.40;1.00;;;;;;4989279;28;20598;-75
2023/06/15 01:56:56;;;;;;;5.73;5.20;;;17.40;1.00;;;;;;4989849;28;20558;-77
2023/06/15 01:59:23;;;;;;;6.53;5.27;;;17.40;1.00;;;;;;4991288;28;20604;-77
2023/06/15 02:01:51;;;;;;;4.90;4.40;;;17.40;1.00;;;;;;4988273;28;20475;-77
2023/06/15 02:04:19;;;;;;;6.77;5.60;;;17.40;1.00;;;;;;4992823;28;20467;-77
2023/06/15 02:06:45;;;;;;;7.63;5.40;;;17.30;1.00;;;;;;4989399;28;20912;-76
2023/06/15 02:09:12;;;;;;;5.33;4.87;;;17.20;1.00;;;;;;4990180;28;21026;-76
2023/06/15 02:11:41;;;;;;;5.90;5.20;;;17.20;1.00;;;;;;4988134;28;20529;-76
2023/06/15 02:14:09;;;;;;;5.20;4.83;;;17.10;1.00;;;;;;4990586;28;21029;-76
2023/06/15 02:16:36;;;;;;;6.40;5.33;;;17.00;1.00;;;;;;4987403;28;20541;-76
2023/06/15 02:19:04;;;;;;;6.70;4.80;;;17.00;1.00;;;;;;4989313;28;20495;-77
2023/06/15 02:21:31;;;;;;;7.63;5.57;;;16.90;1.00;;;;;;4989246;28;20557;-76
2023/06/15 02:23:58;;;;;;;7.57;5.17;;;16.90;1.00;;;;;;4989833;28;20578;-76
2023/06/15 02:26:25;;;;;;;5.43;4.93;;;16.90;1.00;;;;;;4988268;28;21030;-76
2023/06/15 02:28:52;;;;;;;5.63;5.10;;;16.80;1.00;;;;;;4989585;28;20558;-76
2023/06/15 02:31:19;;;;;;;6.67;5.00;;;16.80;1.00;;;;;;4989083;28;20606;-76
2023/06/15 02:33:46;;;;;;;6.57;4.97;;;16.80;1.00;;;;;;4988785;28;20458;-73
2023/06/15 02:36:19;;;;;;;7.87;6.00;;;16.80;1.00;;;;;;4992334;28;20509;-76
2023/06/15 02:38:48;;;;;;;7.23;5.03;;;16.70;1.00;;;;;;4991967;28;20468;-76
2023/06/15 02:41:15;;;;;;;5.30;4.73;;;16.70;1.00;;;;;;4993606;28;20462;-77
2023/06/15 02:43:42;;;;;;;6.73;5.00;;;16.70;1.00;;;;;;4995906;28;20475;-76
2023/06/15 02:46:09;;;;;;;6.73;4.67;;;16.70;1.00;;;;;;4994414;28;20462;-77
2023/06/15 02:48:35;;;;;;;9.03;5.63;;;16.70;1.00;;;;;;4988152;28;20487;-76
2023/06/15 02:51:03;;;;;;;7.37;4.83;;;16.70;1.00;;;;;;4992025;28;21523;-76
2023/06/15 02:53:31;;;;;;;6.77;5.37;;;16.70;1.00;;;;;;4993710;28;20545;-76
2023/06/15 02:55:58;;;;;;;5.30;4.57;;;16.60;1.00;;;;;;4993146;28;20668;-76
2023/06/15 02:58:26;;;;;;;5.37;4.97;;;16.60;1.00;;;;;;4993131;28;20906;-76
2023/06/15 03:00:53;;;;;;;5.30;4.80;;;16.60;1.00;;;;;;4991732;28;20542;-75
2023/06/15 03:03:27;;;;;;;6.50;4.70;;;16.60;1.00;;;;;;4992433;28;20561;-76
2023/06/15 03:05:54;;;;;;;6.37;4.60;;;16.60;1.00;;;;;;4991210;28;20463;-76
2023/06/15 03:08:23;;;;;;;5.73;5.23;;;16.60;1.00;;;;;;4992608;28;20979;-76
2023/06/15 03:10:51;;;;;;;4.90;4.50;;;16.60;1.00;;;;;;4992064;28;20482;-76
2023/06/15 03:13:19;;;;;;;7.10;6.30;;;16.60;1.00;;;;;;4989157;28;20807;-76
2023/06/15 03:15:48;;;;;;;6.17;4.80;;;16.60;1.00;;;;;;4988318;28;20459;-77
2023/06/15 03:18:15;;;;;;;5.50;4.53;;;16.60;1.00;;;;;;4992639;28;20422;-76
2023/06/15 03:20:43;;;;;;;6.43;4.73;;;16.60;1.00;;;;;;4993694;28;20483;-77
2023/06/15 03:23:12;;;;;;;6.80;6.10;;;16.60;1.00;;;;;;4988469;28;20509;-76
2023/06/15 03:25:39;;;;;;;5.63;5.13;;;16.50;1.00;;;;;;4987322;28;20505;-76
2023/06/15 03:28:07;;;;;;;6.00;4.83;;;16.50;1.00;;;;;;4990121;28;21058;-77
2023/06/15 03:30:35;;;;;;;11.23;6.20;;;16.60;1.00;;;;;;4994116;28;21917;-75
2023/06/15 03:33:02;;;;;;;10.23;5.30;;;16.60;1.00;;;;;;4989833;28;20553;-76
2023/06/15 03:35:29;;;;;;;22.97;6.80;;;16.60;1.00;;;;;;4995249;28;20431;-77
2023/06/15 03:37:56;;;;;;;7.53;5.40;;;16.60;1.00;;;;;;4991934;28;20467;-75
2023/06/15 03:40:23;;;;;;;6.97;5.67;;;16.60;1.00;;;;;;4992166;28;20475;-75
2023/06/15 03:42:50;;;;;;;16.07;6.40;;;16.70;1.00;;;;;;4988648;28;20630;-74
2023/06/15 03:45:18;;;;;;;44.43;8.97;;;16.60;1.00;;;;;;4986898;28;20546;-76
2023/06/15 03:47:46;;;;;;;5.33;4.83;;;16.60;1.00;;;;;;4988079;28;20468;-75
2023/06/15 03:50:13;;;;;;;5.97;5.37;;;16.60;1.00;;;;;;4990280;28;20470;-75
2023/06/15 03:52:40;;;;;;;6.57;5.17;;;16.60;1.00;;;;;;4993042;28;20498;-75
2023/06/15 03:55:08;;;;;;;9.90;7.23;;;16.60;1.00;;;;;;4989900;28;21573;-76
2023/06/15 03:57:35;;;;;;;5.13;4.73;;;16.60;1.00;;;;;;4989628;28;20470;-75
2023/06/15 04:00:04;;;;;;;7.50;5.27;;;16.60;1.00;;;;;;4990638;28;20526;-76
2023/06/15 04:02:33;;;;;;;7.60;5.90;;;16.60;1.00;;;;;;4987334;28;20683;-76
2023/06/15 04:05:02;;;;;;;8.70;6.60;;;16.60;1.00;;;;;;4987369;28;20462;-76
2023/06/15 04:07:29;;;;;;;16.60;7.23;;;16.60;1.00;;;;;;4989603;28;20455;-76
2023/06/15 04:09:56;;;;;;;12.63;6.20;;;16.60;1.00;;;;;;4989358;28;20661;-75
2023/06/15 04:12:23;;;;;;;8.33;5.93;;;16.60;1.00;;;;;;4989450;28;20555;-75
2023/06/15 04:14:53;;;;;;;7.50;6.40;;;16.50;1.00;;;;;;4989547;28;20477;-77
2023/06/15 04:17:20;;;;;;;5.53;5.00;;;16.40;1.00;;;;;;4990728;28;20513;-70
2023/06/15 04:19:48;;;;;;;7.50;6.47;;;16.50;1.00;;;;;;4987770;28;20482;-70
2023/06/15 04:22:16;;;;;;;11.60;8.97;;;16.50;1.00;;;;;;4987426;28;20506;-70
2023/06/15 04:24:42;;;;;;;6.60;5.90;;;16.50;1.00;;;;;;4990496;28;20915;-71
2023/06/15 04:27:12;;;;;;;7.13;5.70;;;16.60;1.00;;;;;;4988101;28;20586;-70
2023/06/15 04:29:45;;;;;;;13.20;11.00;;;16.60;1.00;;;;;;4988270;28;20565;-70
2023/06/15 04:32:12;;;;;;;6.63;5.90;;;16.70;1.00;;;;;;4986649;28;21708;-70
2023/06/15 04:34:39;;;;;;;6.23;5.43;;;16.80;1.00;;;;;;4989050;28;20510;-69
2023/06/15 04:37:08;;;;;;;8.53;6.30;;;16.90;1.00;;;;;;4986745;28;20533;-70
2023/06/15 04:39:35;;;;;;;10.63;7.70;;;16.90;1.00;;;;;;4994279;28;20562;-76
2023/06/15 04:42:03;;;;;;;7.77;5.23;;;17.10;1.00;;;;;;4992927;28;20494;-78
2023/06/15 04:44:30;;;;;;;17.17;8.17;;;17.20;1.00;;;;;;4991669;28;20557;-78
2023/06/15 04:46:57;;;;;;;5.13;4.63;;;17.40;1.00;;;;;;4991860;28;20973;-79
2023/06/15 04:49:24;;;;;;;5.57;4.47;;;17.60;1.00;;;;;;4995793;28;20566;-77
2023/06/15 04:51:51;;;;;;;8.03;5.47;;;17.70;1.00;;;;;;4992623;28;21076;-77
2023/06/15 04:54:19;;;;;;;7.80;6.10;;;17.70;1.00;;;;;;4994699;28;20467;-77
2023/06/15 04:56:46;;;;;;;8.27;5.67;;;17.90;1.00;;;;;;4991155;28;20436;-76
2023/06/15 04:59:13;;;;;;;5.37;4.67;;;17.90;1.00;;;;;;4992079;28;20503;-76
2023/06/15 05:01:40;;;;;;;6.07;5.57;;;17.90;1.00;;;;;;4991764;28;21004;-76
2023/06/15 05:04:08;;;;;;;5.17;4.60;;;18.00;1.00;;;;;;4991069;28;20489;-76
2023/06/15 05:06:35;;;;;;;15.43;6.90;;;18.00;1.00;;;;;;4975286;28;20513;-76
2023/06/15 05:09:02;;;;;;;7.20;6.40;;;18.10;1.00;;;;;;4991834;28;20482;-70
2023/06/15 05:11:30;;;;;;;5.97;5.47;;;18.20;1.00;;;;;;4994098;28;20457;-70
2023/06/15 05:13:57;;;;;;;7.10;5.00;;;18.30;1.00;;;;;;4992778;28;20494;-72
2023/06/15 05:16:24;;;;;;;5.63;5.13;;;18.30;1.00;;;;;;4983344;28;20504;-70
2023/06/15 05:18:52;;;;;;;8.83;5.77;;;18.40;1.00;;;;;;4997554;28;21055;-69
2023/06/15 05:21:19;;;;;;;7.20;5.40;;;18.50;1.00;;;;;;4987684;28;20459;-70
2023/06/15 05:23:46;;;;;;;10.70;5.80;;;18.50;1.00;;;;;;4991588;28;20469;-70
2023/06/15 05:26:13;;;;;;;6.00;5.50;;;18.70;1.00;;;;;;4986330;28;21701;-74
2023/06/15 05:28:41;;;;;;;8.53;6.50;;;18.80;1.00;;;;;;4987784;28;20470;-70
2023/06/15 05:31:09;;;;;;;6.33;5.20;;;18.80;1.00;;;;;;4992144;28;20969;-71
2023/06/15 05:33:37;;;;;;;5.93;5.33;;;18.60;1.00;;;;;;4986837;28;20470;-70
2023/06/15 05:36:04;;;;;;;7.60;5.70;;;18.60;1.00;;;;;;4988374;28;20903;-71
2023/06/15 05:38:31;;;;;;;5.77;5.20;;;18.60;1.00;;;;;;4990740;28;20564;-70
2023/06/15 05:40:58;;;;;;;8.73;6.03;;;18.50;1.00;;;;;;4989674;28;20572;-70
2023/06/15 05:43:25;;;;;;;11.13;6.40;;;18.60;1.00;;;;;;4992614;28;20465;-73
2023/06/15 05:45:54;;;;;;;8.73;7.23;;;18.50;1.00;;;;;;4990872;28;20928;-70
2023/06/15 05:48:21;;;;;;;8.90;5.93;;;18.60;1.00;;;;;;4989244;28;20552;-70
2023/06/15 05:50:48;;;;;;;36.67;9.20;;;18.60;1.00;;;;;;4989239;28;20617;-70
2023/06/15 05:53:15;;;;;;;9.03;6.00;;;18.60;1.00;;;;;;4990245;28;20983;-70
2023/06/15 05:55:42;;;;;;;10.40;6.70;;;18.60;1.00;;;;;;4989977;28;20493;-74
2023/06/15 05:58:09;;;;;;;9.67;5.33;;;18.60;1.00;;;;;;4988731;28;20475;-70
2023/06/15 06:00:36;;;;;;;8.37;6.47;;;18.60;1.00;;;;;;4989978;28;20480;-73
2023/06/15 06:03:04;;;;;;;10.37;7.40;;;18.60;1.00;;;;;;4990496;28;20911;-72
2023/06/15 06:05:31;;;;;;;8.33;7.07;;;18.60;1.00;;;;;;4992974;28;20529;-73
2023/06/15 06:07:58;;;;;;;6.43;5.83;;;18.70;1.00;;;;;;4986625;28;20499;-72
2023/06/15 06:10:25;;;;;;;6.33;5.03;;;18.60;1.00;;;;;;4986958;28;20477;-74
2023/06/15 06:12:52;;;;;;;5.87;5.27;;;18.50;1.00;;;;;;4987358;28;21899;-74
2023/06/15 06:15:19;;;;;;;8.03;5.60;;;18.40;1.00;;;;;;4991364;28;20471;-71
2023/06/15 06:17:46;;;;;;;10.23;7.13;;;18.40;1.00;;;;;;4988168;28;20477;-72
2023/06/15 06:20:14;;;;;;;7.20;5.13;;;18.30;1.00;;;;;;4984557;28;20452;-72
2023/06/15 06:22:42;;;;;;;6.27;5.67;;;18.30;1.00;;;;;;4987098;28;20465;-72
2023/06/15 06:25:11;;;;;;;10.83;7.40;;;18.40;1.00;;;;;;4985994;28;20450;-71
2023/06/15 06:27:38;;;;;;;6.67;5.50;;;18.40;1.00;;;;;;4987988;28;20577;-75
2023/06/15 06:30:06;;;;;;;5.83;5.23;;;18.50;1.00;;;;;;4986287;28;20468;-73
2023/06/15 06:32:32;;;;;;;11.53;6.03;;;18.50;1.00;;;;;;4987863;28;20561;-72
2023/06/15 06:35:00;;;;;;;10.17;6.20;;;18.50;1.00;;;;;;4986063;28;20515;-74
2023/06/15 06:37:28;;;;;;;22.90;8.90;;;18.70;1.00;;;;;;4989369;28;20544;-73
2023/06/15 06:39:55;;;;;;;16.17;7.83;;;18.80;1.00;;;;;;4985814;28;20513;-73
2023/06/15 06:42:22;;;;;;;18.03;7.07;;;19.10;1.00;;;;;;4987116;28;20512;-73
2023/06/15 06:44:49;;;;;;;9.33;5.63;;;19.30;1.00;;;;;;4990416;28;20518;-73
2023/06/15 06:47:16;;;;;;;9.50;6.07;;;19.60;1.00;;;;;;4989451;28;20457;-72
2023/06/15 06:49:43;;;;;;;7.47;5.60;;;19.80;1.00;;;;;;4988055;28;20466;-73
2023/06/15 06:52:10;;;;;;;6.13;5.10;;;20.00;1.00;;;;;;4985098;28;20534;-73
2023/06/15 06:54:38;;;;;;;5.90;5.13;;;20.20;1.00;;;;;;4987655;28;20549;-73
2023/06/15 06:57:06;;;;;;;7.67;5.63;;;20.30;1.00;;;;;;4988604;28;20549;-75
2023/06/15 06:59:33;;;;;;;8.00;5.00;;;20.40;1.00;;;;;;4987120;28;20514;-70
2023/06/15 07:02:00;;;;;;;6.90;5.17;;;20.40;1.00;;;;;;4988351;28;20465;-71
2023/06/15 07:04:27;;;;;;;7.40;5.27;;;20.40;1.00;;;;;;4991270;28;20896;-72
2023/06/15 07:06:55;;;;;;;6.30;5.80;;;20.40;1.00;;;;;;4990545;28;20660;-71
2023/06/15 07:09:22;;;;;;;11.37;5.20;;;20.40;1.00;;;;;;4989800;28;20539;-71
2023/06/15 07:11:50;;;;;;;6.20;5.60;;;20.50;1.00;;;;;;4986166;28;20443;-73
2023/06/15 07:14:17;;;;;;;10.87;6.20;;;20.60;1.00;;;;;;4988943;28;20532;-74
2023/06/15 07:16:44;;;;;;;8.50;6.77;;;20.90;1.00;;;;;;4990309;28;20487;-73
2023/06/15 07:19:11;;;;;;;6.20;5.50;;;21.10;1.00;;;;;;4987195;28;20478;-72
2023/06/15 07:21:39;;;;;;;8.13;5.50;;;21.30;1.00;;;;;;4990685;28;20629;-74
2023/06/15 07:24:06;;;;;;;7.30;5.70;;;21.40;1.00;;;;;;4991408;28;20488;-74
2023/06/15 07:26:33;;;;;;;8.00;5.10;;;21.70;1.00;;;;;;4995965;28;21212;-72
2023/06/15 07:29:02;;;;;;;7.17;5.67;;;21.80;1.00;;;;;;4993946;28;20948;-73
2023/06/15 07:31:29;;;;;;;6.03;5.37;;;21.90;1.00;;;;;;4996841;28;20927;-72
2023/06/15 07:33:56;;;;;;;7.10;6.13;;;22.10;1.00;;;;;;4995481;28;20471;-72
2023/06/15 07:36:23;;;;;;;6.23;5.63;;;22.10;1.00;;;;;;4994160;28;20445;-74
2023/06/15 07:38:52;;;;;;;10.13;6.30;;;22.20;1.00;;;;;;4989982;28;20486;-73
2023/06/15 07:41:19;;;;;;;8.27;6.23;;;22.30;1.00;;;;;;4990970;28;20656;-73
2023/06/15 07:43:46;;;;;;;6.50;5.60;;;22.30;1.00;;;;;;4989020;28;20802;-71
2023/06/15 07:46:15;;;;;;;6.90;5.60;;;22.50;1.00;;;;;;4987031;28;20528;-72
2023/06/15 07:48:42;;;;;;;7.30;5.60;;;22.70;1.00;;;;;;4991160;28;20584;-72
2023/06/15 07:51:09;;;;;;;7.33;5.30;;;23.00;1.00;;;;;;4987268;28;20487;-71
2023/06/15 07:53:37;;;;;;;8.97;5.60;;;23.10;1.00;;;;;;4985581;28;20522;-72
2023/06/15 07:56:05;;;;;;;8.93;5.83;;;23.20;1.00;;;;;;4990195;28;20488;-71
2023/06/15 07:58:32;;;;;;;6.97;6.37;;;23.20;1.00;;;;;;4986685;28;20472;-72
2023/06/15 08:00:59;;;;;;;7.13;6.37;;;23.30;1.00;;;;;;4990767;28;20547;-72
2023/06/15 08:03:27;;;;;;;6.07;5.40;;;23.40;1.00;;;;;;4987828;28;20461;-74
2023/06/15 08:05:54;;;;;;;10.30;7.33;;;23.60;1.00;;;;;;4988800;28;20555;-71
2023/06/15 08:08:22;;;;;;;7.60;6.27;;;23.80;1.00;;;;;;4989303;28;20461;-72
2023/06/15 08:10:49;;;;;;;5.90;5.40;;;24.00;1.00;;;;;;4989918;28;20469;-72
2023/06/15 08:13:18;;;;;;;6.90;5.63;;;24.00;1.00;;;;;;4990681;28;20465;-72
2023/06/15 08:15:46;;;;;;;6.20;5.60;;;24.20;1.00;;;;;;4988466;28;20542;-72
2023/06/15 08:18:13;;;;;;;6.10;5.50;;;24.30;1.00;;;;;;4996384;28;20445;-71
2023/06/15 08:20:41;;;;;;;6.87;5.83;;;24.20;1.00;;;;;;4973698;28;20553;-72
2023/06/15 08:23:08;;;;;;;7.40;6.03;;;24.20;1.00;;;;;;4989096;28;20464;-70
2023/06/15 08:25:35;;;;;;;9.53;6.43;;;24.30;1.00;;;;;;4990230;28;20612;-70
2023/06/15 08:28:04;;;;;;;6.80;5.93;;;24.60;1.00;;;;;;4987005;28;20479;-69
2023/06/15 08:30:31;;;;;;;6.30;5.70;;;24.90;1.00;;;;;;4989194;28;20857;-70
2023/06/15 08:32:58;;;;;;;8.00;5.97;;;25.00;1.00;;;;;;4988622;28;20466;-70
2023/06/15 08:35:25;;;;;;;6.10;5.50;;;25.00;1.00;;;;;;4992496;28;20530;-69
2023/06/15 08:37:54;;;;;;;8.90;7.00;;;24.90;1.00;;;;;;4986955;28;20459;-70
2023/06/15 08:40:21;;;;;;;6.60;6.10;;;24.90;1.00;;;;;;4993049;28;20458;-70
2023/06/15 08:42:48;;;;;;;8.37;6.00;;;25.10;1.00;;;;;;4986838;28;20563;-73
2023/06/15 08:45:16;;;;;;;6.07;5.57;;;24.70;1.00;;;;;;4989147;28;20566;-69
2023/06/15 08:47:43;;;;;;;6.43;5.83;;;25.00;1.00;;;;;;4992020;28;20479;-71
2023/06/15 08:50:12;;;;;;;8.00;6.60;;;25.10;1.00;;;;;;4993632;28;21327;-71
2023/06/15 08:52:42;;;;;;;6.63;5.90;;;25.40;1.00;;;;;;4990895;28;20467;-71
2023/06/15 08:55:15;;;;;;;6.47;5.87;;;25.60;1.00;;;;;;4991450;28;21426;-71
2023/06/15 08:57:42;;;;;;;9.67;5.97;;;26.00;1.00;;;;;;4991946;28;20463;-71
2023/06/15 09:00:11;;;;;;;6.50;5.90;;;26.20;1.00;;;;;;4987753;28;20465;-71
2023/06/15 09:02:41;;;;;;;7.70;6.30;;;26.30;1.00;;;;;;4988919;28;20557;-70
2023/06/15 09:05:09;;;;;;;6.30;5.80;;;26.30;1.00;;;;;;4972792;28;20539;-71
2023/06/15 09:07:36;;;;;;;6.13;5.53;;;26.00;1.00;;;;;;4988560;28;20879;-72
2023/06/15 09:10:15;;;;;;;5.83;5.30;;;25.70;1.00;;;;;;4990029;28;20494;-71
2023/06/15 09:12:44;;;;;;;7.33;6.27;;;25.60;1.00;;;;;;4988769;28;20511;-70
2023/06/15 09:15:13;;;;;;;8.13;6.00;;;25.80;1.00;;;;;;4989053;28;20960;-70
2023/06/15 09:17:41;;;;;;;6.70;5.93;;;26.20;1.00;;;;;;4984080;28;20520;-70
2023/06/15 09:20:09;;;;;;;7.00;5.97;;;26.50;1.00;;;;;;4987447;28;20961;-71
2023/06/15 09:22:43;;;;;;;9.03;5.97;;;26.50;1.00;;;;;;4987600;28;20580;-72
2023/06/15 09:25:17;;;;;;;5.50;5.00;;;26.60;1.00;;;;;;4988844;28;20474;-71
2023/06/15 09:27:55;;;;;;;5.83;5.03;;;26.80;1.00;;;;;;4986955;28;20462;-72
2023/06/15 09:30:23;;;;;;;6.23;5.40;;;27.30;1.00;;;;;;4986672;28;21011;-73
2023/06/15 09:32:50;;;;;;;6.90;6.10;;;27.50;1.00;;;;;;4989248;28;20462;-70
2023/06/15 09:35:17;;;;;;;6.73;5.30;;;27.80;1.00;;;;;;4990386;28;20478;-70
2023/06/15 09:37:44;;;;;;;6.13;5.00;;;27.90;1.00;;;;;;4990189;28;20823;-70
2023/06/15 09:40:12;;;;;;;5.07;4.67;;;28.00;1.00;;;;;;4990418;28;20457;-72
2023/06/15 09:42:51;;;;;;;11.47;7.07;;;28.10;1.00;;;;;;4970472;28;20478;-71
2023/06/15 09:45:18;;;;;;;6.17;5.50;;;28.30;1.00;;;;;;4990370;28;20495;-69
2023/06/15 09:47:45;;;;;;;10.70;9.50;;;28.40;1.00;;;;;;4991680;28;20497;-70
2023/06/15 09:50:12;;;;;;;5.83;5.33;;;28.20;1.00;;;;;;4989896;28;21834;-71
2023/06/15 09:52:43;;;;;;;8.03;5.97;;;27.90;1.00;;;;;;4991257;28;20496;-71
2023/06/15 09:55:11;;;;;;;6.30;5.73;;;27.50;1.00;;;;;;4990053;28;20947;-70
2023/06/15 09:57:40;;;;;;;9.67;6.00;;;27.20;1.00;;;;;;4990370;28;20465;-71
2023/06/15 10:00:10;;;;;;;11.70;6.10;;;26.90;1.00;;;;;;4987062;28;21029;-71
2023/06/15 10:02:39;;;;;;;5.20;4.80;;;26.50;1.00;;;;;;4991484;28;20472;-71
2023/06/15 10:05:23;;;;;;;10.20;7.50;;;26.10;1.00;;;;;;4990886;28;20564;-71
2023/06/15 10:07:51;;;;;;;6.20;5.60;;;26.00;1.00;;;;;;4986580;28;20490;-71
2023/06/15 10:10:20;;;;;;;5.73;5.23;;;25.80;1.00;;;;;;4987639;28;20468;-70
2023/06/15 10:12:49;;;;;;;7.10;6.50;;;25.50;1.00;;;;;;4988144;28;20510;-70
2023/06/15 10:15:20;;;;;;;6.53;5.90;;;25.40;1.00;;;;;;4989231;28;20554;-70
2023/06/15 10:17:52;;;;;;;7.77;6.90;;;25.30;1.00;;;;;;4988317;28;20525;-70
2023/06/15 10:20:23;;;;;;;5.73;5.23;;;25.30;1.00;;;;;;4987325;28;20513;-72
2023/06/15 10:22:56;;;;;;;8.43;6.40;;;25.20;1.00;;;;;;4988402;28;20491;-72
2023/06/15 10:25:24;;;;;;;7.00;5.83;;;25.10;1.00;;;;;;4989789;28;20479;-71
2023/06/15 10:27:51;;;;;;;7.27;5.23;;;25.10;1.00;;;;;;4986580;28;20470;-71
2023/06/15 10:30:29;;;;;;;6.60;6.00;;;25.10;1.00;;;;;;4984616;28;20468;-69
2023/06/15 10:33:04;;;;;;;8.67;6.20;;;25.10;1.00;;;;;;4970276;28;20910;-70
2023/06/15 10:35:35;;;;;;;5.67;5.17;;;25.20;1.00;;;;;;4989072;28;20477;-71
2023/06/15 10:38:15;;;;;;;6.80;5.47;;;25.10;1.00;;;;;;4985643;28;20921;-70
2023/06/15 10:40:47;;;;;;;8.43;5.40;;;25.20;1.00;;;;;;4988594;28;20540;-73
2023/06/15 10:43:18;;;;;;;7.60;4.93;;;25.20;1.00;;;;;;4990241;28;20456;-70
2023/06/15 10:45:49;;;;;;;8.33;5.13;;;25.10;1.00;;;;;;4989447;28;20476;-71
2023/06/15 10:48:26;;;;;;;9.27;5.03;;;25.00;1.00;;;;;;4988570;28;20458;-72
2023/06/15 10:51:02;;;;;;;7.50;5.50;;;25.00;1.00;;;;;;4990279;28;20490;-72
2023/06/15 10:53:34;;;;;;;7.63;5.27;;;25.00;1.00;;;;;;4991337;28;20462;-71
2023/06/15 10:56:02;;;;;;;9.47;5.50;;;24.90;1.00;;;;;;4987699;28;21065;-71
2023/06/15 10:58:30;;;;;;;5.80;5.30;;;24.80;1.00;;;;;;4987797;28;20455;-75
2023/06/15 11:01:10;;;;;;;5.13;4.63;;;24.90;1.00;;;;;;4989319;28;20489;-71
2023/06/15 11:03:40;;;;;;;6.77;6.10;;;24.90;1.00;;;;;;4989970;28;20850;-71
2023/06/15 11:06:10;;;;;;;13.73;7.77;;;24.90;1.00;;;;;;4988747;28;20565;-72
2023/06/15 11:08:47;;;;;;;5.90;5.40;;;24.70;1.00;;;;;;4991892;28;21042;-71
2023/06/15 11:11:15;;;;;;;5.50;5.00;;;24.70;1.00;;;;;;4989592;28;20475;-71
2023/06/15 11:14:00;;;;;;;7.47;5.63;;;24.60;1.00;;;;;;4987574;28;20520;-71
2023/06/15 11:16:31;;;;;;;5.43;4.90;;;24.50;1.00;;;;;;4987721;28;20484;-71
2023/06/15 11:18:59;;;;;;;8.53;6.13;;;24.40;1.00;;;;;;4991397;28;20554;-71
2023/06/15 11:21:28;;;;;;;9.20;6.30;;;24.30;1.00;;;;;;4989795;28;20469;-71
2023/06/15 11:23:57;;;;;;;5.83;4.90;;;24.30;1.00;;;;;;4986717;28;20474;-70
2023/06/15 11:26:28;;;;;;;8.43;5.80;;;24.30;1.00;;;;;;4990249;28;20484;-72
2023/06/15 11:28:57;;;;;;;6.10;5.53;;;24.30;1.00;;;;;;4988556;28;20473;-71
2023/06/15 11:31:24;;;;;;;5.90;5.40;;;24.30;1.00;;;;;;4988864;28;20458;-72
2023/06/15 11:33:53;;;;;;;5.37;4.30;;;24.30;1.00;;;;;;4990258;28;20539;-74
2023/06/15 11:36:19;;;;;;;6.33;5.60;;;24.40;1.00;;;;;;4988655;28;20483;-71
2023/06/15 11:38:47;;;;;;;6.00;5.03;;;24.40;1.00;;;;;;4984683;28;20549;-70
2023/06/15 11:41:14;;;;;;;5.80;5.30;;;24.60;1.00;;;;;;4990718;28;20466;-74
2023/06/15 11:43:42;;;;;;;5.57;4.93;;;24.80;1.00;;;;;;4989933;28;20882;-71
2023/06/15 11:46:13;;;;;;;5.90;4.70;;;25.10;1.00;;;;;;4985875;28;20518;-70
2023/06/15 11:48:40;;;;;;;4.90;4.20;;;25.30;1.00;;;;;;4989918;28;20546;-70
2023/06/15 11:51:09;;;;;;;6.10;5.50;;;25.50;1.00;;;;;;4989655;28;20548;-71
2023/06/15 11:53:37;;;;;;;7.43;5.10;;;25.70;1.00;;;;;;4987284;28;20478;-70
2023/06/15 11:56:04;;;;;;;5.00;4.60;;;26.30;1.00;;;;;;4989330;28;20613;-71
2023/06/15 11:58:34;;;;;;;5.20;4.80;;;27.90;1.00;;;;;;4990517;28;21059;-70
2023/06/15 12:01:01;;;;;;;5.43;4.93;;;30.80;1.00;;;;;;4988951;28;20512;-70
2023/06/15 12:03:30;;;;;;;5.33;4.83;;;33.70;1.00;;;;;;4994219;28;20451;-70
2023/06/15 12:05:58;;;;;;;5.93;4.17;;;35.80;1.00;;;;;;4987598;28;20465;-72
2023/06/15 12:08:28;;;;;;;6.70;4.90;;;37.20;1.00;;;;;;4989625;28;20455;-70
2023/06/15 12:10:57;;;;;;;4.23;3.83;;;38.10;1.00;;;;;;4988903;28;20590;-72
2023/06/15 12:13:24;;;;;;;6.60;5.20;;;39.00;1.00;;;;;;4989036;28;20450;-71
2023/06/15 12:15:51;;;;;;;5.57;5.07;;;39.70;1.00;;;;;;4987209;28;20471;-71
2023/06/15 12:18:20;;;;;;;7.93;5.00;;;39.90;1.00;;;;;;4989967;28;20451;-72
2023/06/15 12:20:47;;;;;;;8.10;5.17;;;40.20;1.00;;;;;;4984576;28;20973;-73
2023/06/15 12:23:27;;;;;;;5.10;4.60;;;40.10;1.00;;;;;;4990977;28;20546;-71
2023/06/15 12:25:56;;;;;;;8.93;6.17;;;40.40;1.00;;;;;;4988317;28;20657;-71
2023/06/15 12:28:24;;;;;;;6.00;4.40;;;41.00;1.00;;;;;;4987067;28;20467;-71
2023/06/15 12:30:52;;;;;;;9.60;5.60;;;40.20;1.00;;;;;;4986017;28;20467;-74
2023/06/15 12:33:30;;;;;;;5.07;4.57;;;38.90;1.00;;;;;;4989433;28;21907;-71
2023/06/15 12:35:58;;;;;;;7.60;5.77;;;36.30;1.00;;;;;;4985760;28;20486;-71
2023/06/15 12:38:27;;;;;;;9.30;4.10;;;34.60;1.00;;;;;;4988503;28;20545;-70
2023/06/15 12:40:55;;;;;;;5.87;4.40;;;33.00;1.00;;;;;;4986656;28;20459;-73
2023/06/15 12:43:28;;;;;;;10.10;4.90;;;31.80;1.00;;;;;;4985970;28;20455;-71
2023/06/15 12:45:56;;;;;;;4.80;4.40;;;31.20;1.00;;;;;;4987961;28;20480;-71
2023/06/15 12:48:24;;;;;;;6.37;5.77;;;30.90;1.00;;;;;;4989768;28;20546;-71
2023/06/15 12:50:51;;;;;;;5.23;4.73;;;30.80;1.00;;;;;;4986094;28;20554;-70
2023/06/15 12:53:18;;;;;;;6.40;5.00;;;30.50;1.00;;;;;;4990254;28;20463;-70
2023/06/15 12:55:47;;;;;;;8.17;6.43;;;30.00;1.00;;;;;;4987412;28;20746;-70
2023/06/15 12:58:14;;;;;;;5.97;4.17;;;29.90;1.00;;;;;;4987389;28;20451;-71
2023/06/15 13:00:43;;;;;;;4.77;4.30;;;29.70;1.00;;;;;;4987667;28;20465;-70